Terminal Aerodrome Forecast
Issued by NWS Shreveport, LA

Current Version | Previous Version | Text Only | Print | Product List | Glossary On
Versions: 1 2 3 4 5 6 7 8 9 10 11 12 13 14 15 16 17 18 19 20
000
FTUS44 KSHV 280520
TAFGGG
TAF
KGGG 280520Z 2806/2906 16006KT P6SM OVC120
      TEMPO 2806/2808 BKN015
     FM280800 15005KT 6SM BR OVC010
      TEMPO 2808/2812 3SM BR OVC005
     FM281600 19010KT P6SM SCT030
      TEMPO 2816/2818 BKN020
     FM290000 16005KT P6SM SKC=

USA.gov is the U.S. government's official web portal to all federal, state and local government web resources and services.